Time;durP1;ratioP1;P1;durP2;ratioP2;P2;SDS_P1;SDS_P2;PMS_P1;PMS_P2;Temp;Humidity;BMP_temperature;BMP_pressure;BME280_temperature;BME280_humidity;BME280_pressure;Samples;Min_cycle;Max_cycle;Signal;HPM_P1;HPM_P2
2022/07/16 00:03:08;;;;;;;5.23;3.80;;;;;;;16.11;92.45;100738.47;4964590;28;20197;-76
2022/07/16 00:05:33;;;;;;;3.97;3.67;;;;;;;16.08;92.37;100728.97;4961541;28;20270;-76
2022/07/16 00:07:58;;;;;;;4.70;3.57;;;;;;;16.04;92.49;100734.28;4963280;28;20206;-77
2022/07/16 00:10:24;;;;;;;4.00;3.43;;;;;;;16.02;92.47;100742.16;4964076;28;20290;-76
2022/07/16 00:12:49;;;;;;;3.93;3.40;;;;;;;16.02;93.04;100741.31;4966517;28;20187;-76
2022/07/16 00:15:18;;;;;;;5.73;3.60;;;;;;;15.97;92.57;100738.78;4963716;28;20232;-76
2022/07/16 00:17:43;;;;;;;4.13;3.70;;;;;;;15.95;92.86;100741.47;4969222;28;20202;-77
2022/07/16 00:20:10;;;;;;;4.30;3.90;;;;;;;15.92;92.95;100738.06;4967620;28;20209;-74
2022/07/16 00:22:35;;;;;;;5.10;3.70;;;;;;;15.90;93.32;100748.53;4970122;28;20660;-75
2022/07/16 00:25:02;;;;;;;4.33;3.60;;;;;;;15.86;93.70;100744.28;4966388;28;20284;-76
2022/07/16 00:27:27;;;;;;;4.10;3.70;;;;;;;15.81;93.78;100756.56;4961092;28;20240;-75
2022/07/16 00:29:53;;;;;;;4.37;3.70;;;;;;;15.75;93.89;100738.41;4971294;28;20216;-75
2022/07/16 00:32:18;;;;;;;4.43;3.23;;;;;;;15.71;93.52;100748.06;4964038;28;20241;-75
2022/07/16 00:34:43;;;;;;;4.27;3.67;;;;;;;15.67;93.27;100749.03;4958325;28;20457;-77
2022/07/16 00:37:09;;;;;;;4.90;3.70;;;;;;;15.64;93.54;100754.34;4966825;28;20292;-76
2022/07/16 00:39:34;;;;;;;3.77;3.47;;;;;;;15.61;92.94;100746.56;4972617;28;20683;-76
2022/07/16 00:42:00;;;;;;;3.77;3.40;;;;;;;15.57;93.29;100743.19;4961894;28;20197;-75
2022/07/16 00:44:25;;;;;;;3.47;3.17;;;;;;;15.55;93.59;100753.63;4970647;28;20650;-75
2022/07/16 00:46:51;;;;;;;3.40;3.10;;;;;;;15.52;93.69;100748.47;4966621;28;20214;-75
2022/07/16 00:49:17;;;;;;;3.83;3.47;;;;;;;15.50;93.55;100755.47;4985482;28;20195;-76
2022/07/16 00:51:51;;;;;;;3.63;3.27;;;;;;;15.45;93.94;100754.75;4964611;28;20566;-76
2022/07/16 00:54:17;;;;;;;3.63;3.40;;;;;;;15.40;94.01;100751.38;4966428;28;20204;-76
2022/07/16 00:56:43;;;;;;;4.43;3.73;;;;;;;15.31;94.23;100752.41;4965149;28;20472;-76
2022/07/16 00:59:09;;;;;;;3.97;3.53;;;;;;;15.21;94.05;100756.13;4974664;28;20607;-75
2022/07/16 01:01:35;;;;;;;3.70;3.40;;;;;;;15.12;94.14;100754.56;4970816;28;20193;-75
2022/07/16 01:04:04;;;;;;;3.50;3.20;;;;;;;15.06;94.44;100752.06;4961222;28;20670;-75
2022/07/16 01:06:30;;;;;;;3.50;3.20;;;;;;;15.01;94.40;100756.53;4957584;28;20190;-74
2022/07/16 01:08:57;;;;;;;3.90;3.50;;;;;;;14.95;94.76;100754.91;4966138;28;20214;-76
2022/07/16 01:11:22;;;;;;;4.20;3.70;;;;;;;14.91;94.92;100756.69;4959933;28;20189;-74
2022/07/16 01:13:50;;;;;;;3.90;3.60;;;;;;;14.86;95.36;100758.53;4968769;28;20197;-77
2022/07/16 01:16:16;;;;;;;3.60;3.30;;;;;;;14.83;95.98;100752.50;4967802;28;20190;-76
2022/07/16 01:18:43;;;;;;;3.90;3.60;;;;;;;14.78;95.83;100757.81;4964202;28;20751;-76
2022/07/16 01:21:09;;;;;;;3.40;3.10;;;;;;;14.74;95.65;100754.41;4963143;28;20189;-76
2022/07/16 01:23:35;;;;;;;4.10;3.70;;;;;;;14.70;95.47;100757.13;4960500;28;20186;-76
2022/07/16 01:26:01;;;;;;;7.90;3.50;;;;;;;14.63;95.33;100751.13;4964400;28;20209;-76
2022/07/16 01:28:26;;;;;;;3.77;3.47;;;;;;;14.61;95.66;100756.34;4965525;28;20197;-76
2022/07/16 01:30:52;;;;;;;4.23;3.67;;;;;;;14.58;95.38;100748.63;4962526;28;20185;-76
2022/07/16 01:33:26;;;;;;;3.47;3.17;;;;;;;14.57;95.60;100759.03;4965496;28;20200;-76
2022/07/16 01:35:58;;;;;;;3.73;3.47;;;;;;;14.53;96.12;100753.03;4958548;28;20195;-76
2022/07/16 01:38:24;;;;;;;3.60;3.30;;;;;;;14.49;96.74;100759.19;4963601;28;20762;-76
2022/07/16 01:40:50;;;;;;;3.83;3.47;;;;;;;14.45;96.93;100753.19;4964695;28;20220;-76
2022/07/16 01:43:21;;;;;;;3.90;3.50;;;;;;;14.41;97.28;100755.88;4969844;28;20615;-76
2022/07/16 01:45:47;;;;;;;4.07;3.60;;;;;;;14.36;97.12;100760.28;4963558;28;20222;-76
2022/07/16 01:48:13;;;;;;;4.13;3.73;;;;;;;14.31;96.96;100750.78;4952886;28;20252;-77
2022/07/16 01:50:40;;;;;;;3.93;3.53;;;;;;;14.30;97.20;100754.28;4958669;28;20245;-75
2022/07/16 01:53:07;;;;;;;4.10;3.47;;;;;;;14.24;97.05;100759.59;4966376;28;20231;-77
2022/07/16 01:55:33;;;;;;;3.77;3.47;;;;;;;14.18;96.41;100754.50;4960949;28;20203;-77
2022/07/16 01:57:59;;;;;;;3.30;3.00;;;;;;;14.14;96.19;100751.09;4964608;28;20203;-77
2022/07/16 02:00:25;;;;;;;4.03;3.63;;;;;;;14.12;96.28;100745.03;4967475;28;20197;-77
2022/07/16 02:02:53;;;;;;;4.27;3.87;;;;;;;14.11;96.13;100755.50;4970821;28;20272;-77
2022/07/16 02:05:19;;;;;;;3.53;3.23;;;;;;;14.07;96.47;100752.06;4964889;28;20681;-78
2022/07/16 02:07:44;;;;;;;4.10;3.70;;;;;;;14.05;96.77;100751.25;4963362;28;20206;-77
2022/07/16 02:10:10;;;;;;;3.53;3.23;;;;;;;14.03;97.44;100759.06;4955078;28;20181;-77
2022/07/16 02:12:36;;;;;;;4.20;3.50;;;;;;;13.98;97.45;100758.28;4961015;28;20183;-78
2022/07/16 02:15:01;;;;;;;3.67;2.90;;;;;;;13.93;97.75;100760.09;4965260;28;20261;-77
2022/07/16 02:17:27;;;;;;;4.10;3.63;;;;;;;13.88;97.74;100759.31;4960922;28;20248;-78
2022/07/16 02:19:52;;;;;;;3.70;3.30;;;;;;;13.80;97.77;100751.59;4968757;28;20274;-79
2022/07/16 02:22:18;;;;;;;3.73;3.37;;;;;;;13.75;97.39;100757.75;4960347;28;20213;-77
2022/07/16 02:24:43;;;;;;;3.67;3.40;;;;;;;13.71;97.75;100762.16;4961462;28;20250;-78
2022/07/16 02:27:09;;;;;;;3.73;3.43;;;;;;;13.66;97.87;100762.22;4961296;28;20210;-77
2022/07/16 02:29:34;;;;;;;3.90;3.60;;;;;;;13.63;97.94;100766.59;4963857;28;20641;-77
2022/07/16 02:32:00;;;;;;;3.33;3.13;;;;;;;13.59;98.21;100763.19;4952322;28;20190;-79
2022/07/16 02:34:25;;;;;;;3.53;3.30;;;;;;;13.54;98.46;100755.44;4962584;28;20188;-76
2022/07/16 02:36:51;;;;;;;3.23;3.00;;;;;;;13.51;98.59;100755.50;4962656;28;20201;-76
2022/07/16 02:39:16;;;;;;;4.17;3.30;;;;;;;13.47;98.97;100753.81;4958903;28;20601;-75
2022/07/16 02:41:42;;;;;;;3.40;3.03;;;;;;;13.44;99.35;100750.38;4962451;28;20223;-77
2022/07/16 02:44:07;;;;;;;3.60;3.23;;;;;;;13.42;99.57;100753.03;4960327;28;20274;-73
2022/07/16 02:46:33;;;;;;;4.03;3.63;;;;;;;13.38;99.61;100746.09;4963391;28;20192;-76
2022/07/16 02:48:58;;;;;;;3.60;3.30;;;;;;;13.32;99.40;100749.66;4962441;28;20192;-74
2022/07/16 02:51:23;;;;;;;4.17;3.40;;;;;;;13.28;99.35;100753.16;4963860;28;20202;-75
2022/07/16 02:53:49;;;;;;;3.60;3.30;;;;;;;13.26;99.22;100752.31;4961332;28;20715;-75
2022/07/16 02:56:15;;;;;;;4.90;3.57;;;;;;;13.22;99.28;100748.91;4960370;28;20227;-74
2022/07/16 02:58:40;;;;;;;4.30;3.57;;;;;;;13.22;99.54;100755.84;4960398;28;20209;-76
2022/07/16 03:01:05;;;;;;;4.30;3.30;;;;;;;13.23;99.84;100755.81;4959599;28;20200;-75
2022/07/16 03:03:31;;;;;;;3.97;3.30;;;;;;;13.26;100.00;100757.50;4964709;28;20250;-73
2022/07/16 03:05:56;;;;;;;3.70;3.37;;;;;;;13.26;100.00;100754.91;4963672;28;20182;-76
2022/07/16 03:08:22;;;;;;;4.00;3.67;;;;;;;13.27;100.00;100749.72;4962695;28;20319;-76
2022/07/16 03:10:47;;;;;;;5.60;4.30;;;;;;;13.25;100.00;100746.28;4967426;28;20210;-76
2022/07/16 03:13:13;;;;;;;4.60;4.20;;;;;;;13.23;100.00;100748.03;4964286;28;20229;-76
2022/07/16 03:15:38;;;;;;;3.83;3.50;;;;;;;13.19;100.00;100753.28;4964201;28;20187;-74
2022/07/16 03:18:03;;;;;;;4.60;3.70;;;;;;;13.14;100.00;100750.75;4966492;28;20556;-77
2022/07/16 03:20:29;;;;;;;4.33;3.93;;;;;;;13.09;100.00;100757.72;4962764;28;20209;-76
2022/07/16 03:22:54;;;;;;;5.77;4.20;;;;;;;13.07;100.00;100754.28;4966182;28;20235;-75
2022/07/16 03:25:20;;;;;;;4.57;3.93;;;;;;;13.04;100.00;100749.13;4963554;28;20633;-77
2022/07/16 03:27:46;;;;;;;4.40;3.97;;;;;;;13.01;100.00;100754.38;4964151;28;20213;-74
2022/07/16 03:30:13;;;;;;;4.67;4.27;;;;;;;12.96;100.00;100757.00;4960888;28;20190;-76
2022/07/16 03:32:38;;;;;;;5.00;3.93;;;;;;;12.93;100.00;100763.09;4965524;28;20190;-77
2022/07/16 03:35:08;;;;;;;4.40;4.00;;;;;;;12.89;100.00;100768.34;4964848;28;20457;-75
2022/07/16 03:37:34;;;;;;;4.73;3.70;;;;;;;12.86;100.00;100764.03;4964869;28;20213;-74
2022/07/16 03:39:59;;;;;;;4.37;3.97;;;;;;;12.83;100.00;100771.00;4966687;28;20753;-76
2022/07/16 03:42:25;;;;;;;5.40;4.10;;;;;;;12.80;100.00;100770.16;4963311;28;20267;-75
2022/07/16 03:44:50;;;;;;;4.13;3.80;;;;;;;12.80;100.00;100767.56;4963644;28;20277;-76
2022/07/16 03:47:16;;;;;;;4.83;4.33;;;;;;;12.80;100.00;100764.13;4962679;28;20752;-76
2022/07/16 03:49:41;;;;;;;5.37;4.27;;;;;;;12.78;100.00;100776.25;4963047;28;20193;-74
2022/07/16 03:52:06;;;;;;;5.60;4.10;;;;;;;12.75;100.00;100774.56;4966582;28;20546;-76
2022/07/16 03:54:32;;;;;;;8.83;4.57;;;;;;;12.74;100.00;100765.03;4956696;28;20205;-74
2022/07/16 03:56:57;;;;;;;6.37;3.77;;;;;;;12.75;100.00;100776.28;4955984;28;20768;-74
2022/07/16 03:59:23;;;;;;;5.07;4.47;;;;;;;12.79;100.00;100776.22;4965913;28;20203;-77
2022/07/16 04:01:48;;;;;;;4.73;4.33;;;;;;;12.85;100.00;100779.66;4964514;28;20278;-79
2022/07/16 04:04:14;;;;;;;4.67;4.17;;;;;;;12.91;100.00;100779.59;4969713;28;20697;-75
2022/07/16 04:06:40;;;;;;;4.50;4.00;;;;;;;12.99;100.00;100790.75;4968961;28;20730;-77
2022/07/16 04:09:06;;;;;;;4.30;3.90;;;;;;;13.07;100.00;100788.06;4965918;28;20282;-76
2022/07/16 04:11:31;;;;;;;4.20;3.80;;;;;;;13.14;100.00;100792.31;4968582;28;20667;-77
2022/07/16 04:13:57;;;;;;;6.43;3.60;;;;;;;13.23;100.00;100791.38;4968748;28;20190;-76
2022/07/16 04:16:22;;;;;;;4.97;3.73;;;;;;;13.29;100.00;100788.66;4958061;28;20273;-74
2022/07/16 04:18:47;;;;;;;4.57;3.77;;;;;;;13.36;100.00;100795.53;4960187;28;20210;-75
2022/07/16 04:21:14;;;;;;;4.83;3.67;;;;;;;13.45;100.00;100798.91;4972703;28;20190;-76
2022/07/16 04:23:39;;;;;;;4.27;3.87;;;;;;;13.56;100.00;100797.03;4965296;28;20282;-77
2022/07/16 04:26:05;;;;;;;4.47;3.70;;;;;;;13.66;100.00;100798.66;4963167;28;20288;-78
2022/07/16 04:28:30;;;;;;;4.33;3.57;;;;;;;13.79;100.00;100801.06;4961757;28;20263;-76
2022/07/16 04:30:56;;;;;;;4.10;3.70;;;;;;;14.47;98.07;100798.28;4969754;28;20178;-76
2022/07/16 04:33:21;;;;;;;6.23;3.67;;;;;;;15.55;94.43;100795.38;4967793;28;20186;-76
2022/07/16 04:35:48;;;;;;;4.60;3.07;;;;;;;16.69;90.09;100790.13;4964649;28;20189;-76
2022/07/16 04:38:14;;;;;;;4.23;2.97;;;;;;;17.65;86.79;100793.53;4965449;28;20200;-79
2022/07/16 04:40:39;;;;;;;6.93;3.57;;;;;;;18.08;85.09;100796.59;4973130;28;20198;-77
2022/07/16 04:43:05;;;;;;;3.57;3.27;;;;;;;18.38;84.06;100804.38;4969542;28;20174;-76
2022/07/16 04:45:30;;;;;;;4.10;3.00;;;;;;;18.52;83.54;100790.81;4965470;28;20289;-77
2022/07/16 04:47:56;;;;;;;2.93;2.63;;;;;;;18.40;83.56;100799.06;4969845;28;20588;-76
2022/07/16 04:50:21;;;;;;;3.60;3.30;;;;;;;18.68;82.33;100790.28;4964336;28;20695;-76
2022/07/16 04:52:47;;;;;;;5.60;3.60;;;;;;;19.06;80.82;100795.94;4961663;28;20186;-77
2022/07/16 04:55:12;;;;;;;3.33;3.03;;;;;;;19.78;79.01;100788.88;4960199;28;21709;-76
2022/07/16 04:57:38;;;;;;;4.40;3.00;;;;;;;20.16;77.63;100798.81;4963460;28;20219;-77
2022/07/16 05:00:05;;;;;;;3.40;3.10;;;;;;;19.98;78.04;100787.25;4956387;28;20785;-77
2022/07/16 05:05:15;;;;;;;4.43;3.13;;;;;;;19.75;78.28;100794.25;4962405;28;20962;-77
2022/07/16 05:07:40;;;;;;;3.53;2.80;;;;;;;19.72;78.86;100792.63;4958977;28;20207;-77
2022/07/16 05:10:06;;;;;;;3.13;2.83;;;;;;;20.10;77.80;100792.03;4959534;28;20189;-76
2022/07/16 05:12:31;;;;;;;3.40;2.77;;;;;;;20.08;78.17;100794.69;4965646;28;20277;-77
2022/07/16 05:14:56;;;;;;;3.73;2.90;;;;;;;20.57;77.18;100804.09;4977160;28;20184;-76
2022/07/16 05:17:22;;;;;;;4.67;2.57;;;;;;;21.53;75.13;100799.00;4963423;28;20702;-76
2022/07/16 05:19:47;;;;;;;3.60;2.77;;;;;;;22.77;72.75;100793.00;4963347;28;20684;-77
2022/07/16 05:22:13;;;;;;;5.27;2.63;;;;;;;23.88;70.33;100792.28;4962386;28;20209;-77
2022/07/16 05:24:38;;;;;;;3.20;2.87;;;;;;;24.80;68.38;100789.66;4964889;28;20205;-77
2022/07/16 05:27:04;;;;;;;3.37;2.37;;;;;;;25.62;66.20;100787.22;4967019;28;20221;-76
2022/07/16 05:29:29;;;;;;;3.17;2.60;;;;;;;26.40;65.00;100790.13;4961594;28;20233;-77
2022/07/16 05:31:54;;;;;;;3.33;2.50;;;;;;;27.04;64.13;100781.34;4966779;28;20213;-77
2022/07/16 05:34:20;;;;;;;3.57;2.50;;;;;;;27.59;63.15;100775.69;4968645;28;20646;-77
2022/07/16 05:36:45;;;;;;;4.80;2.40;;;;;;;28.06;61.82;100778.44;4965812;28;20712;-77
2022/07/16 05:39:13;;;;;;;2.83;2.50;;;;;;;28.55;60.99;100788.03;4961272;28;20749;-77
2022/07/16 05:41:38;;;;;;;3.63;2.60;;;;;;;29.02;60.35;100787.13;4972997;28;20209;-77
2022/07/16 05:44:04;;;;;;;4.03;2.80;;;;;;;29.42;59.49;100786.59;4962262;28;20190;-77
2022/07/16 05:46:29;;;;;;;7.73;2.90;;;;;;;29.52;58.08;100786.69;4964685;28;20617;-77
2022/07/16 05:48:55;;;;;;;4.17;2.70;;;;;;;29.68;56.97;100785.44;4967590;28;20222;-77
2022/07/16 05:51:20;;;;;;;3.13;2.47;;;;;;;29.85;56.24;100784.06;4962076;28;20718;-77
2022/07/16 05:53:45;;;;;;;3.80;2.70;;;;;;;30.17;55.93;100788.56;4957270;28;20996;-77
2022/07/16 05:56:11;;;;;;;7.80;3.37;;;;;;;30.31;55.48;100790.91;4963237;28;20677;-78
2022/07/16 05:58:36;;;;;;;6.93;3.10;;;;;;;30.64;54.64;100786.31;4967267;28;20257;-77
2022/07/16 06:01:01;;;;;;;9.43;3.17;;;;;;;30.64;54.81;100793.50;4973838;28;20236;-77
2022/07/16 06:03:27;;;;;;;10.73;3.30;;;;;;;30.93;54.84;100790.13;4967484;28;20190;-77
2022/07/16 06:05:52;;;;;;;8.03;3.43;;;;;;;31.00;54.38;100786.78;4972963;28;20194;-78
2022/07/16 06:08:18;;;;;;;10.97;3.87;;;;;;;30.96;53.82;100784.50;4973952;28;20216;-78
2022/07/16 06:10:43;;;;;;;7.30;3.50;;;;;;;31.17;53.35;100787.16;4970704;28;20182;-77
2022/07/16 06:13:10;;;;;;;8.67;3.20;;;;;;;31.22;52.22;100789.41;4969831;28;20647;-77
2022/07/16 06:15:36;;;;;;;6.23;3.13;;;;;;;31.11;51.21;100788.50;4967401;28;20281;-77
2022/07/16 06:18:01;;;;;;;7.47;2.70;;;;;;;31.18;51.86;100794.19;4981455;28;20291;-76
2022/07/16 06:20:26;;;;;;;2.95;2.40;;;;;;;31.47;50.71;100794.25;4966969;28;20221;-77
2022/07/16 06:22:54;;;;;;;4.63;2.13;;;;;;;31.45;49.27;100803.41;4972319;28;20182;-76
2022/07/16 06:25:20;;;;;;;5.13;2.57;;;;;;;31.07;49.34;100804.97;4966803;28;20202;-77
2022/07/16 06:27:45;;;;;;;4.47;2.70;;;;;;;30.65;49.07;100809.38;4981475;28;20710;-76
2022/07/16 06:30:12;;;;;;;4.23;2.60;;;;;;;30.58;49.73;100807.38;4970285;28;20668;-77
2022/07/16 06:32:38;;;;;;;4.67;2.57;;;;;;;30.91;49.91;100814.31;4974620;28;21095;-77
2022/07/16 06:35:04;;;;;;;8.30;2.87;;;;;;;31.12;50.13;100816.94;4968344;28;20269;-77
2022/07/16 06:37:30;;;;;;;4.70;2.40;;;;;;;31.06;49.82;100814.78;4963623;28;20301;-77
2022/07/16 06:39:55;;;;;;;5.10;2.67;;;;;;;31.14;49.92;100815.00;4964474;28;20206;-77
2022/07/16 06:42:20;;;;;;;2.63;2.40;;;;;;;31.49;49.82;100812.84;4967141;28;20213;-77
2022/07/16 06:44:46;;;;;;;3.57;1.93;;;;;;;31.61;49.42;100811.72;4963420;28;20193;-77
2022/07/16 06:47:11;;;;;;;4.03;2.20;;;;;;;31.63;49.49;100803.56;4962137;28;20224;-75
2022/07/16 06:49:37;;;;;;;2.88;2.33;;;;;;;31.53;48.94;100811.59;4967771;28;20205;-78
2022/07/16 06:52:02;;;;;;;4.68;2.17;;;;;;;31.75;49.60;100813.19;4959350;28;20187;-78
2022/07/16 06:54:28;;;;;;;3.78;2.03;;;;;;;31.83;48.95;100811.63;4964562;28;20233;-77
2022/07/16 06:56:53;;;;;;;5.90;2.38;;;;;;;31.90;48.79;100810.09;4955244;28;20206;-76
2022/07/16 06:59:19;;;;;;;6.32;2.35;;;;;;;31.96;48.90;100819.41;4962083;28;20237;-76
2022/07/16 07:01:44;;;;;;;5.25;2.40;;;;;;;32.09;49.13;100814.59;4959557;28;20553;-76
2022/07/16 07:04:09;;;;;;;4.60;2.40;;;;;;;31.70;48.23;100812.75;4962341;28;20198;-77
2022/07/16 07:06:35;;;;;;;3.67;2.38;;;;;;;31.59;48.92;100819.03;4963234;28;20198;-76
2022/07/16 07:09:00;;;;;;;5.20;1.95;;;;;;;31.67;48.99;100817.53;4961005;28;20202;-76
2022/07/16 07:11:26;;;;;;;7.37;2.50;;;;;;;31.41;48.42;100818.88;4959817;28;20197;-76
2022/07/16 07:13:51;;;;;;;2.73;2.17;;;;;;;31.23;48.73;100820.50;4956613;28;20608;-75
2022/07/16 07:16:17;;;;;;;3.23;2.27;;;;;;;31.24;49.01;100816.84;4964131;28;20345;-76
2022/07/16 07:18:43;;;;;;;2.17;1.87;;;;;;;31.36;49.19;100817.59;4963382;28;20213;-76
2022/07/16 07:21:08;;;;;;;5.60;2.30;;;;;;;31.39;48.90;100822.66;4965430;28;20742;-76
2022/07/16 07:23:33;;;;;;;4.07;2.10;;;;;;;31.46;48.93;100818.47;4970836;28;20208;-77
2022/07/16 07:25:59;;;;;;;2.17;1.83;;;;;;;31.25;48.71;100824.72;4970568;28;20558;-76
2022/07/16 07:28:24;;;;;;;3.53;1.77;;;;;;;31.29;48.67;100823.47;4967358;28;20252;-77
2022/07/16 07:30:50;;;;;;;3.97;2.00;;;;;;;30.85;48.96;100825.53;4970142;28;20177;-78
2022/07/16 07:33:15;;;;;;;4.20;2.20;;;;;;;30.66;48.91;100820.94;4966331;28;20193;-77
2022/07/16 07:35:41;;;;;;;2.60;1.97;;;;;;;30.65;49.11;100825.41;4950655;28;20284;-77
2022/07/16 07:38:07;;;;;;;5.40;2.10;;;;;;;30.71;48.93;100824.91;4960885;28;20690;-78
2022/07/16 07:40:32;;;;;;;3.70;2.20;;;;;;;30.57;48.97;100819.91;4981384;28;20194;-77
2022/07/16 07:42:59;;;;;;;4.90;2.37;;;;;;;30.47;48.88;100829.66;4970820;28;20661;-76
2022/07/16 07:45:25;;;;;;;3.00;2.20;;;;;;;30.27;49.10;100827.69;4969245;28;20210;-78
2022/07/16 07:47:50;;;;;;;3.30;2.07;;;;;;;30.01;49.39;100827.22;4959019;28;20276;-77
2022/07/16 07:50:16;;;;;;;3.20;2.00;;;;;;;30.10;49.52;100833.59;4946162;28;20190;-77
2022/07/16 07:52:41;;;;;;;4.93;2.00;;;;;;;30.18;50.08;100820.44;4954812;28;20233;-76
2022/07/16 07:55:08;;;;;;;2.43;1.90;;;;;;;29.64;48.37;100819.53;4952990;28;20712;-76
2022/07/16 07:57:33;;;;;;;3.50;1.50;;;;;;;29.43;48.54;100822.13;4957756;28;20604;-75
2022/07/16 07:59:59;;;;;;;2.83;1.63;;;;;;;28.63;48.51;100822.03;4964806;28;20210;-76
2022/07/16 08:02:25;;;;;;;2.23;1.60;;;;;;;28.32;49.29;100819.06;4946129;28;20186;-75
2022/07/16 08:04:50;;;;;;;1.63;1.30;;;;;;;27.37;49.45;100823.25;4954230;28;20680;-76
2022/07/16 08:07:16;;;;;;;3.10;1.70;;;;;;;27.58;49.78;100820.03;4948276;28;20208;-75
2022/07/16 08:09:41;;;;;;;3.70;2.00;;;;;;;27.48;49.78;100816.34;4951860;28;20197;-77
2022/07/16 08:12:07;;;;;;;5.20;1.77;;;;;;;27.47;50.19;100820.81;4972345;28;20220;-75
2022/07/16 08:14:32;;;;;;;3.00;1.80;;;;;;;27.71;50.34;100809.34;4959148;28;20186;-75
2022/07/16 08:16:58;;;;;;;2.17;1.60;;;;;;;27.58;50.35;100816.53;4963423;28;20206;-75
2022/07/16 08:19:24;;;;;;;3.17;1.67;;;;;;;27.44;50.51;100817.50;4950815;28;20202;-76
2022/07/16 08:21:49;;;;;;;2.93;1.43;;;;;;;27.02;49.30;100820.44;4962422;28;20646;-76
2022/07/16 08:26:59;;;;;;;2.60;1.17;;;;;;;26.55;49.70;100828.91;4964738;28;20280;-77
2022/07/16 08:29:25;;;;;;;2.73;1.50;;;;;;;26.34;50.43;100833.84;4963763;28;20186;-76
2022/07/16 08:31:50;;;;;;;1.53;1.40;;;;;;;26.17;50.81;100821.69;4982104;28;20187;-77
2022/07/16 08:34:16;;;;;;;3.23;1.57;;;;;;;26.00;51.45;100828.97;4962402;28;20197;-76
2022/07/16 08:36:41;;;;;;;3.27;1.60;;;;;;;25.67;51.37;100816.94;4971508;28;20665;-76
2022/07/16 08:39:07;;;;;;;4.00;1.87;;;;;;;25.66;51.34;100827.63;4966064;28;20220;-76
2022/07/16 08:41:34;;;;;;;3.63;1.73;;;;;;;25.45;51.72;100822.75;4975629;28;20779;-76
2022/07/16 08:43:59;;;;;;;2.47;1.60;;;;;;;25.25;52.46;100824.81;4968287;28;20193;-76
2022/07/16 08:46:29;;;;;;;2.23;1.60;;;;;;;25.31;52.62;100820.94;4970236;28;20185;-76
2022/07/16 08:48:55;;;;;;;5.90;1.70;;;;;;;25.19;52.09;100829.66;4952562;28;20194;-77
2022/07/16 08:51:30;;;;;;;1.60;1.50;;;;;;;25.14;52.06;100818.50;4953288;28;20850;-76
2022/07/16 08:54:01;;;;;;;4.03;1.70;;;;;;;24.93;52.08;100822.38;4967189;28;20194;-77
2022/07/16 08:56:30;;;;;;;3.17;1.33;;;;;;;24.90;52.17;100822.53;4964261;28;20202;-76
2022/07/16 08:58:56;;;;;;;1.77;1.40;;;;;;;24.79;52.39;100810.00;4967376;28;20264;-76
2022/07/16 09:01:25;;;;;;;2.43;1.40;;;;;;;24.74;53.25;100820.00;4962634;28;20249;-76
2022/07/16 09:03:50;;;;;;;3.50;1.50;;;;;;;24.65;52.80;100824.00;4954619;28;20189;-76
2022/07/16 09:06:17;;;;;;;3.33;1.30;;;;;;;24.60;52.76;100818.13;4966413;28;20646;-76
2022/07/16 09:08:43;;;;;;;2.53;1.30;;;;;;;24.61;52.88;100822.47;4946797;28;20238;-76
2022/07/16 09:11:23;;;;;;;2.43;1.43;;;;;;;24.71;53.06;100821.97;4945218;28;20179;-76
2022/07/16 09:14:01;;;;;;;1.90;1.50;;;;;;;24.72;53.11;100828.97;4953558;28;20539;-76
2022/07/16 09:16:33;;;;;;;3.43;1.30;;;;;;;24.68;53.43;100822.13;4943262;28;20321;-75
2022/07/16 09:19:22;;;;;;;2.27;1.30;;;;;;;24.76;54.25;100820.75;4963879;28;20190;-76
2022/07/16 09:22:07;;;;;;;2.83;1.80;;;;;;;24.55;53.44;100819.34;4962800;28;20282;-75
2022/07/16 09:24:45;;;;;;;2.97;1.73;;;;;;;24.31;53.85;100823.34;4958916;28;20623;-75
2022/07/16 09:27:13;;;;;;;2.23;1.37;;;;;;;24.27;53.78;100816.56;4976896;28;20213;-76
2022/07/16 09:29:52;;;;;;;2.53;1.50;;;;;;;24.42;53.96;100824.53;4977562;28;20276;-77
2022/07/16 09:32:31;;;;;;;2.77;1.50;;;;;;;24.50;54.35;100812.53;4978617;28;20342;-76
2022/07/16 09:35:16;;;;;;;2.27;1.53;;;;;;;24.65;55.53;100818.72;4970231;28;20189;-77
2022/07/16 09:37:55;;;;;;;2.63;1.67;;;;;;;24.58;54.20;100829.75;4962668;28;20218;-75
2022/07/16 09:40:29;;;;;;;2.07;1.30;;;;;;;24.57;53.91;100815.69;4962781;28;20221;-76
2022/07/16 09:42:55;;;;;;;2.43;1.30;;;;;;;24.61;53.65;100824.28;4946103;28;20212;-75
2022/07/16 09:45:21;;;;;;;2.13;1.27;;;;;;;24.64;54.37;100821.47;4964041;28;20528;-75
2022/07/16 09:47:48;;;;;;;1.70;1.37;;;;;;;24.76;54.69;100818.13;4959817;28;20233;-75
2022/07/16 09:50:14;;;;;;;3.97;1.93;;;;;;;24.80;54.35;100822.28;4962082;28;20197;-75
2022/07/16 09:52:40;;;;;;;2.37;1.70;;;;;;;24.89;54.08;100812.91;4967126;28;20716;-75
2022/07/16 09:55:06;;;;;;;2.43;1.60;;;;;;;24.96;54.85;100827.47;4965394;28;20213;-76
2022/07/16 09:57:32;;;;;;;1.83;1.20;;;;;;;24.95;54.06;100822.28;4964698;28;20215;-75
2022/07/16 09:59:58;;;;;;;3.20;1.47;;;;;;;25.08;53.83;100827.66;4946263;28;20264;-74
2022/07/16 10:02:25;;;;;;;1.67;1.30;;;;;;;25.10;54.08;100829.28;4962723;28;20193;-76
2022/07/16 10:04:51;;;;;;;3.00;1.80;;;;;;;25.08;54.21;100820.59;4968330;28;20221;-76
2022/07/16 10:07:17;;;;;;;2.90;1.50;;;;;;;25.09;53.31;100829.38;4981553;28;20299;-75
2022/07/16 10:09:43;;;;;;;1.40;1.10;;;;;;;25.16;53.46;100827.19;4948458;28;20970;-75
2022/07/16 10:12:12;;;;;;;2.03;1.43;;;;;;;25.29;53.14;100822.81;4971957;28;20189;-77
2022/07/16 10:14:42;;;;;;;2.43;1.70;;;;;;;25.36;53.10;100820.66;4978971;28;20213;-74
2022/07/16 10:17:14;;;;;;;3.37;1.57;;;;;;;25.38;52.82;100822.28;4965673;28;20202;-75
2022/07/16 10:19:40;;;;;;;2.93;1.20;;;;;;;25.33;52.53;100821.69;4962272;28;20218;-74
2022/07/16 10:22:13;;;;;;;3.73;1.57;;;;;;;25.13;52.23;100817.66;4945813;28;20547;-77
2022/07/16 10:24:54;;;;;;;2.60;1.50;;;;;;;25.14;52.32;100819.34;4963642;28;20205;-75
2022/07/16 10:27:22;;;;;;;2.47;1.70;;;;;;;25.19;52.09;100827.00;4967445;28;20686;-76
2022/07/16 10:29:48;;;;;;;2.97;1.47;;;;;;;25.16;51.82;100833.34;4962950;28;20185;-78
2022/07/16 10:32:29;;;;;;;2.07;1.30;;;;;;;25.15;51.64;100829.00;4972076;28;20562;-75
2022/07/16 10:34:55;;;;;;;1.80;1.23;;;;;;;25.21;49.79;100831.25;4946241;28;20210;-77
2022/07/16 10:37:30;;;;;;;2.10;1.30;;;;;;;25.24;49.74;100823.13;4972756;28;20213;-76
2022/07/16 10:40:06;;;;;;;1.97;1.30;;;;;;;25.31;50.03;100828.06;4962265;28;20688;-76
2022/07/16 10:42:33;;;;;;;1.80;1.30;;;;;;;25.18;49.90;100826.16;4971070;28;20182;-78
2022/07/16 10:44:59;;;;;;;1.63;1.20;;;;;;;25.27;50.75;100820.28;4964061;28;20678;-77
2022/07/16 10:47:48;;;;;;;2.33;1.40;;;;;;;25.40;50.97;100817.72;4965757;28;20202;-76
2022/07/16 10:50:21;;;;;;;1.83;1.40;;;;;;;25.54;51.22;100821.34;4961070;28;20609;-76
2022/07/16 10:52:48;;;;;;;1.33;1.20;;;;;;;25.49;51.23;100818.94;4976088;28;20252;-75
2022/07/16 10:55:40;;;;;;;1.27;1.10;;;;;;;25.58;51.88;100808.72;4966343;28;20956;-76
2022/07/16 10:58:06;;;;;;;2.70;1.03;;;;;;;25.74;50.65;100816.53;4947428;28;20254;-75
2022/07/16 11:00:31;;;;;;;2.87;1.53;;;;;;;25.71;50.36;100820.25;4951758;28;20210;-75
2022/07/16 11:03:00;;;;;;;1.77;1.20;;;;;;;25.74;47.35;100824.47;4965126;28;20182;-75
2022/07/16 11:05:30;;;;;;;2.60;1.17;;;;;;;25.63;46.34;100820.72;4954359;28;20650;-76
2022/07/16 11:08:07;;;;;;;1.47;1.30;;;;;;;25.48;46.27;100816.41;4947819;28;20715;-76
2022/07/16 11:10:33;;;;;;;1.33;1.10;;;;;;;25.54;46.00;100819.53;4959320;28;20197;-75
2022/07/16 11:12:59;;;;;;;1.17;1.00;;;;;;;25.60;45.16;100818.28;4955903;28;20198;-75
2022/07/16 11:15:25;;;;;;;2.10;1.20;;;;;;;25.65;46.89;100815.31;4946737;28;20193;-77
2022/07/16 11:17:55;;;;;;;1.50;1.20;;;;;;;25.65;46.81;100817.97;4970139;28;20676;-77
2022/07/16 11:20:23;;;;;;;1.23;1.13;;;;;;;25.66;47.34;100809.94;4961134;28;20218;-76
2022/07/16 11:22:48;;;;;;;2.50;1.10;;;;;;;25.70;48.26;100816.75;4957897;28;20659;-76
2022/07/16 11:25:14;;;;;;;1.70;1.17;;;;;;;25.82;48.86;100808.94;4963619;28;20213;-76
2022/07/16 11:27:39;;;;;;;1.67;1.00;;;;;;;25.80;48.53;100809.03;4942728;28;20237;-76
2022/07/16 11:30:08;;;;;;;2.23;1.40;;;;;;;25.85;49.23;100814.06;4958003;28;20186;-76